Time;durP1;ratioP1;P1;durP2;ratioP2;P2;SDS_P1;SDS_P2;PMS_P1;PMS_P2;Temp;Humidity;BMP_temperature;BMP_pressure;BME280_temperature;BME280_humidity;BME280_pressure;Samples;Min_cycle;Max_cycle;Signal;HPM_P1;HPM_P2
2023/08/28 07:51:57;;;;;;;;;1.00;1.00;;;;;;;;5528528;24;46992;-90
2023/08/28 07:54:23;;;;;;;;;2.67;2.67;;;;;;;;4754248;29;45690;-96
2023/08/28 07:56:50;;;;;;;;;1.00;1.00;;;;;;;;4742738;29;45386;-96
2023/08/28 07:59:16;;;;;;;;;1.00;1.00;;;;;;;;4754340;29;45185;-89
2023/08/28 08:01:41;;;;;;;;;1.00;1.00;;;;;;;;4754364;29;45478;-91
2023/08/28 08:04:06;;;;;;;;;0.00;0.00;;;;;;;;4747808;29;45347;-92
2023/08/28 08:06:32;;;;;;;;;0.33;0.33;;;;;;;;4758861;29;45425;-95
2023/08/28 08:09:09;;;;;;;;;0.00;0.00;;;;;;;;4755596;29;45430;-94
2023/08/28 08:11:40;;;;;;;;;0.33;0.33;;;;;;;;4741832;29;45544;-96
2023/08/28 08:14:15;;;;;;;;;0.00;0.00;;;;;;;;4741418;29;47139;-94
2023/08/28 08:16:40;;;;;;;;;0.00;0.00;;;;;;;;4733325;29;45315;-92
2023/08/28 08:19:06;;;;;;;;;0.00;0.00;;;;;;;;4751281;29;44542;-92
2023/08/28 08:21:36;;;;;;;;;0.00;0.00;;;;;;;;4753220;29;45426;-94
2023/08/28 08:24:01;;;;;;;;;0.33;0.33;;;;;;;;4745285;29;44870;-93
2023/08/28 08:26:26;;;;;;;;;0.00;0.00;;;;;;;;4751192;29;44697;-92
2023/08/28 08:28:55;;;;;;;;;0.00;0.00;;;;;;;;4764644;29;45414;-92
2023/08/28 08:31:20;;;;;;;;;0.00;0.00;;;;;;;;4763916;29;42498;-93
2023/08/28 08:33:51;;;;;;;;;0.00;0.00;;;;;;;;4768487;29;44538;-96
2023/08/28 08:36:17;;;;;;;;;1.00;1.00;;;;;;;;4760580;29;45520;-96
2023/08/28 08:38:44;;;;;;;;;1.00;1.00;;;;;;;;4760534;29;47235;-96
2023/08/28 08:41:10;;;;;;;;;1.00;1.00;;;;;;;;4762955;29;45618;-96
2023/08/28 08:43:38;;;;;;;;;1.00;1.00;;;;;;;;4751113;29;38301;-95
2023/08/28 08:46:05;;;;;;;;;1.00;1.00;;;;;;;;4765871;29;45414;-95
2023/08/28 08:48:32;;;;;;;;;0.00;0.00;;;;;;;;4739264;29;45440;-94
2023/08/28 08:51:07;;;;;;;;;0.00;0.00;;;;;;;;4747172;29;46648;-94
2023/08/28 08:53:46;;;;;;;;;0.67;0.67;;;;;;;;4737310;29;47125;-95
2023/08/28 08:56:17;;;;;;;;;1.00;1.00;;;;;;;;4762763;29;47281;-95
2023/08/28 08:59:12;;;;;;;;;1.00;1.00;;;;;;;;4746207;29;45660;-96
2023/08/28 09:07:29;;;;;;;;;1.00;1.00;;;;;;;;4675626;30;28568;-96
2023/08/28 09:10:02;;;;;;;;;2.00;2.00;;;;;;;;4745781;29;45551;-94
2023/08/28 09:12:51;;;;;;;;;0.00;0.00;;;;;;;;4757766;29;45567;-96
2023/08/28 09:15:23;;;;;;;;;2.00;2.00;;;;;;;;4759044;29;45603;-96
2023/08/28 09:17:49;;;;;;;;;1.00;1.00;;;;;;;;4769444;24;45694;-96
2023/08/28 09:26:32;;;;;;;;;1.67;1.67;;;;;;;;4681477;30;45612;-96
2023/08/28 09:29:01;;;;;;;;;1.00;1.00;;;;;;;;4744025;29;45373;-96
2023/08/28 09:31:27;;;;;;;;;0.33;0.33;;;;;;;;4746210;29;45391;-94
2023/08/28 09:33:55;;;;;;;;;1.33;1.33;;;;;;;;4753490;29;44985;-96
2023/08/28 09:36:20;;;;;;;;;0.00;0.00;;;;;;;;4730234;29;47232;-95
2023/08/28 09:38:45;;;;;;;;;1.00;1.00;;;;;;;;4742894;29;46943;-96
2023/08/28 09:41:11;;;;;;;;;0.00;0.00;;;;;;;;4747499;29;45248;-95
2023/08/28 09:43:36;;;;;;;;;1.00;1.00;;;;;;;;4751580;29;45223;-96
2023/08/28 09:46:02;;;;;;;;;0.67;0.67;;;;;;;;4753164;30;45326;-96
2023/08/28 09:48:30;;;;;;;;;1.00;1.00;;;;;;;;4738681;29;45105;-96
2023/08/28 09:50:56;;;;;;;;;0.00;0.00;;;;;;;;4761999;29;44738;-96
2023/08/28 10:12:27;;;;;;;;;2.00;2.00;;;;;;;;4679415;27;46123;-96
2023/08/28 10:14:53;;;;;;;;;2.00;2.00;;;;;;;;4767648;29;45552;-96
2023/08/28 10:17:19;;;;;;;;;1.33;1.33;;;;;;;;4771710;29;42577;-96
2023/08/28 10:19:50;;;;;;;;;2.00;2.00;;;;;;;;4745173;29;45280;-96
2023/08/28 10:22:18;;;;;;;;;1.00;1.00;;;;;;;;4741489;29;45434;-96
2023/08/28 10:24:47;;;;;;;;;1.33;1.33;;;;;;;;4746553;29;45380;-96
2023/08/28 10:27:16;;;;;;;;;2.00;2.00;;;;;;;;4762834;29;46623;-96
2023/08/28 10:30:08;;;;;;;;;2.00;2.00;;;;;;;;4742405;29;44750;-96
2023/08/28 10:32:35;;;;;;;;;2.00;2.00;;;;;;;;4691190;30;45519;-96
2023/08/28 10:35:01;;;;;;;;;2.00;2.00;;;;;;;;4741028;29;45446;-96
2023/08/28 10:37:27;;;;;;;;;2.00;2.00;;;;;;;;4756371;29;45668;-96
2023/08/28 10:39:57;;;;;;;;;1.67;1.67;;;;;;;;4744425;29;46099;-96
2023/08/28 10:42:23;;;;;;;;;3.00;1.00;;;;;;;;4763488;29;45439;-96
2023/08/28 10:44:49;;;;;;;;;1.00;1.00;;;;;;;;4733771;29;45323;-95
2023/08/28 10:47:15;;;;;;;;;5.00;5.00;;;;;;;;4728199;30;45350;-96
2023/08/28 10:49:40;;;;;;;;;4.00;4.00;;;;;;;;4732985;30;45493;-96
2023/08/28 10:52:06;;;;;;;;;2.00;2.00;;;;;;;;4721569;30;45644;-96
2023/08/28 10:54:43;;;;;;;;;1.33;1.33;;;;;;;;4723507;30;45265;-96
2023/08/28 10:57:20;;;;;;;;;1.00;1.00;;;;;;;;4737708;29;46357;-95
2023/08/28 10:59:46;;;;;;;;;1.67;1.67;;;;;;;;4728090;29;45323;-96
2023/08/28 11:02:11;;;;;;;;;1.67;1.67;;;;;;;;4725627;30;45677;-96
2023/08/28 11:04:39;;;;;;;;;1.00;1.00;;;;;;;;4734371;30;44902;-95
2023/08/28 11:07:06;;;;;;;;;1.00;1.00;;;;;;;;4748337;30;45318;-96
2023/08/28 11:09:33;;;;;;;;;1.00;1.00;;;;;;;;4723336;30;28334;-95
2023/08/28 11:11:58;;;;;;;;;1.00;1.00;;;;;;;;4721912;30;45403;-95
2023/08/28 11:14:34;;;;;;;;;0.33;0.33;;;;;;;;4729913;30;28260;-94
2023/08/28 11:17:05;;;;;;;;;2.00;1.00;;;;;;;;4731150;30;46144;-95
2023/08/28 11:19:31;;;;;;;;;1.00;1.00;;;;;;;;4736777;30;45485;-93
2023/08/28 11:21:59;;;;;;;;;1.00;1.00;;;;;;;;4728804;30;45423;-96
2023/08/28 11:24:25;;;;;;;;;1.00;1.00;;;;;;;;4735440;30;28344;-96
2023/08/28 11:26:50;;;;;;;;;2.33;1.00;;;;;;;;4735750;30;42447;-96
2023/08/28 11:29:26;;;;;;;;;1.00;1.00;;;;;;;;4756709;29;44612;-96
2023/08/28 11:31:51;;;;;;;;;2.00;2.00;;;;;;;;4841558;24;46066;-96
2023/08/28 11:34:16;;;;;;;;;2.00;2.00;;;;;;;;4757021;29;45204;-96
2023/08/28 11:36:42;;;;;;;;;1.33;1.33;;;;;;;;4752379;29;45609;-96
2023/08/28 11:39:19;;;;;;;;;1.33;1.33;;;;;;;;4745423;30;45734;-96
2023/08/28 11:41:44;;;;;;;;;2.67;2.67;;;;;;;;4738523;30;45333;-96
2023/08/28 11:44:12;;;;;;;;;2.00;2.00;;;;;;;;4729959;30;46883;-96
2023/08/28 11:46:40;;;;;;;;;2.00;2.00;;;;;;;;4722401;30;47265;-95
2023/08/28 11:49:06;;;;;;;;;3.00;3.00;;;;;;;;4715225;30;45643;-95
2023/08/28 11:51:31;;;;;;;;;1.00;1.00;;;;;;;;4737499;30;45482;-95
2023/08/28 11:53:58;;;;;;;;;1.00;1.00;;;;;;;;4739415;30;45134;-96
2023/08/28 11:56:23;;;;;;;;;1.00;1.00;;;;;;;;4738713;30;48466;-96
2023/08/28 11:58:52;;;;;;;;;1.00;1.00;;;;;;;;4739260;29;45413;-96
2023/08/28 12:01:17;;;;;;;;;3.00;3.00;;;;;;;;4733381;30;45359;-95
2023/08/28 12:03:43;;;;;;;;;2.00;2.00;;;;;;;;4737071;30;45410;-95
2023/08/28 12:06:09;;;;;;;;;2.00;2.00;;;;;;;;4738106;30;45301;-92
2023/08/28 12:08:38;;;;;;;;;2.00;2.00;;;;;;;;4741287;30;45244;-91
2023/08/28 12:11:22;;;;;;;;;1.67;1.67;;;;;;;;4743278;29;45487;-96
2023/08/28 12:13:47;;;;;;;;;2.00;2.00;;;;;;;;4726378;30;46323;-94
2023/08/28 12:16:19;;;;;;;;;2.33;2.33;;;;;;;;4732377;30;45494;-95
2023/08/28 12:18:45;;;;;;;;;1.33;1.33;;;;;;;;4733999;29;45422;-94
2023/08/28 12:21:10;;;;;;;;;2.00;2.00;;;;;;;;4731444;30;45432;-96
2023/08/28 12:23:49;;;;;;;;;2.00;2.00;;;;;;;;4728672;29;45525;-95
2023/08/28 12:31:47;;;;;;;;;2.00;2.00;;;;;;;;4596437;27;45616;-96
2023/08/28 12:34:12;;;;;;;;;1.00;1.00;;;;;;;;4747122;29;45527;-96
2023/08/28 12:36:38;;;;;;;;;2.00;2.00;;;;;;;;4742138;29;48162;-96
2023/08/28 12:39:03;;;;;;;;;1.00;1.00;;;;;;;;4744630;29;45267;-96
2023/08/28 12:41:32;;;;;;;;;1.00;1.00;;;;;;;;4732613;30;45385;-96
2023/08/28 12:44:00;;;;;;;;;1.67;1.67;;;;;;;;4725642;29;45502;-95
2023/08/28 12:46:48;;;;;;;;;1.00;1.00;;;;;;;;4727341;29;46308;-94
2023/08/28 12:49:14;;;;;;;;;1.00;1.00;;;;;;;;4724740;30;45323;-93
2023/08/28 12:51:41;;;;;;;;;1.67;1.67;;;;;;;;4729123;30;45355;-96
2023/08/28 12:54:22;;;;;;;;;0.00;0.00;;;;;;;;4734937;30;45441;-96
2023/08/28 12:56:48;;;;;;;;;1.00;1.00;;;;;;;;4744443;29;46438;-94
2023/08/28 12:59:22;;;;;;;;;1.00;1.00;;;;;;;;4907298;23;45720;-96
2023/08/28 13:01:48;;;;;;;;;1.00;1.00;;;;;;;;4779701;29;45463;-96
2023/08/28 13:04:16;;;;;;;;;0.33;0.33;;;;;;;;4775591;29;46998;-96
2023/08/28 13:06:41;;;;;;;;;0.67;0.67;;;;;;;;4772228;29;46379;-96
2023/08/28 13:09:07;;;;;;;;;1.00;1.00;;;;;;;;4767629;29;44983;-96
2023/08/28 13:11:32;;;;;;;;;0.00;0.00;;;;;;;;4755283;29;45915;-96
2023/08/28 13:13:59;;;;;;;;;0.00;0.00;;;;;;;;4776508;29;45223;-96
2023/08/28 13:16:24;;;;;;;;;1.00;1.00;;;;;;;;4787446;29;45284;-96
2023/08/28 13:18:50;;;;;;;;;0.00;0.00;;;;;;;;4783424;29;45232;-96
2023/08/28 13:21:15;;;;;;;;;1.00;1.00;;;;;;;;4772642;29;28323;-96
2023/08/28 13:23:40;;;;;;;;;0.00;0.00;;;;;;;;4789223;29;28396;-96
2023/08/28 13:26:06;;;;;;;;;0.00;0.00;;;;;;;;4789764;29;29350;-96
2023/08/28 13:28:37;;;;;;;;;0.00;0.00;;;;;;;;4790024;29;28258;-96
2023/08/28 13:31:03;;;;;;;;;0.00;0.00;;;;;;;;4789587;29;28311;-96
2023/08/28 13:33:48;;;;;;;;;0.00;0.00;;;;;;;;4762805;29;28369;-96
2023/08/28 13:36:19;;;;;;;;;0.33;0.33;;;;;;;;4781209;29;28462;-95
2023/08/28 13:38:48;;;;;;;;;0.00;0.00;;;;;;;;4765923;29;28537;-95
2023/08/28 13:41:23;;;;;;;;;0.00;0.00;;;;;;;;4785938;29;27938;-96
2023/08/28 13:43:51;;;;;;;;;0.00;0.00;;;;;;;;4766581;29;28505;-96
2023/08/28 13:46:16;;;;;;;;;0.00;0.00;;;;;;;;4774865;29;29448;-92
2023/08/28 13:48:41;;;;;;;;;0.00;0.00;;;;;;;;4788966;29;28540;-96
2023/08/28 13:51:07;;;;;;;;;0.00;0.00;;;;;;;;4791447;29;28711;-96
2023/08/28 13:53:32;;;;;;;;;0.00;0.00;;;;;;;;4788859;29;28355;-96
2023/08/28 13:56:01;;;;;;;;;0.00;0.00;;;;;;;;4786625;29;28546;-96
2023/08/28 14:04:31;;;;;;;;;1.00;1.00;;;;;;;;5277945;24;27908;-96
2023/08/28 14:07:15;;;;;;;;;;;;;;;;;;;;;
2023/08/28 14:09:41;;;;;;;;;2.33;2.33;;;;;;;;4773628;29;54335;-96
2023/08/28 14:15:43;;;;;;;;;;;;;;;;;;;;;
2023/08/28 14:26:04;;;;;;;;;0.00;0.00;;;;;;;;4995799;24;28485;-96
2023/08/28 14:28:29;;;;;;;;;0.00;0.00;;;;;;;;4764883;29;43635;-96
2023/08/28 14:30:57;;;;;;;;;0.33;0.33;;;;;;;;4752287;29;332438;-96
2023/08/28 14:33:22;;;;;;;;;1.67;1.67;;;;;;;;4774910;29;27832;-96
2023/08/28 14:35:53;;;;;;;;;0.00;0.00;;;;;;;;4787414;29;28604;-96
2023/08/28 14:38:21;;;;;;;;;1.00;1.00;;;;;;;;4761995;29;29454;-96
2023/08/28 14:40:50;;;;;;;;;0.00;0.00;;;;;;;;4771524;29;28700;-96
2023/08/28 14:43:17;;;;;;;;;0.00;0.00;;;;;;;;4773650;29;28319;-96
2023/08/28 14:45:46;;;;;;;;;0.00;0.00;;;;;;;;4792086;29;28524;-96
2023/08/28 14:48:12;;;;;;;;;0.00;0.00;;;;;;;;4756548;29;30354;-96
2023/08/28 14:50:38;;;;;;;;;0.00;0.00;;;;;;;;4733603;29;858826;-94
2023/08/28 14:53:03;;;;;;;;;0.00;0.00;;;;;;;;4767794;29;30208;-94
2023/08/28 14:55:56;;;;;;;;;0.00;0.00;;;;;;;;4748928;29;28468;-96
2023/08/28 14:58:22;;;;;;;;;0.00;0.00;;;;;;;;4753729;29;28967;-96
2023/08/28 15:00:53;;;;;;;;;1.00;1.00;;;;;;;;4775357;29;28496;-95
2023/08/28 15:03:19;;;;;;;;;0.67;0.67;;;;;;;;4769022;29;28783;-95
2023/08/28 15:05:44;;;;;;;;;1.00;1.00;;;;;;;;4759067;29;348466;-95
2023/08/28 15:08:09;;;;;;;;;1.00;1.00;;;;;;;;4773685;29;28333;-94
2023/08/28 15:10:36;;;;;;;;;1.00;1.00;;;;;;;;4756778;29;28309;-95
2023/08/28 15:13:01;;;;;;;;;1.00;1.00;;;;;;;;4772714;29;28518;-95
2023/08/28 15:15:28;;;;;;;;;0.00;0.00;;;;;;;;4770933;29;28289;-95
2023/08/28 15:17:53;;;;;;;;;0.00;0.00;;;;;;;;4768147;29;28263;-94
2023/08/28 15:20:18;;;;;;;;;1.00;1.00;;;;;;;;4771380;29;28248;-95
2023/08/28 15:22:43;;;;;;;;;1.00;1.00;;;;;;;;4770040;29;28614;-95
2023/08/28 15:25:11;;;;;;;;;1.00;1.00;;;;;;;;4773786;29;28294;-95
2023/08/28 15:27:36;;;;;;;;;2.00;2.00;;;;;;;;4771398;29;28354;-95
2023/08/28 15:30:01;;;;;;;;;2.67;2.67;;;;;;;;4772453;29;28496;-95
2023/08/28 15:32:29;;;;;;;;;1.00;1.00;;;;;;;;4772295;29;28513;-95
2023/08/28 15:34:54;;;;;;;;;2.00;2.00;;;;;;;;4756550;29;28483;-95
2023/08/28 15:37:20;;;;;;;;;1.00;1.00;;;;;;;;4772260;29;29222;-95
2023/08/28 15:39:46;;;;;;;;;1.00;1.00;;;;;;;;4771326;29;28318;-95
2023/08/28 15:42:14;;;;;;;;;1.00;1.00;;;;;;;;4772301;29;28421;-95
2023/08/28 15:44:39;;;;;;;;;2.00;2.00;;;;;;;;4772580;29;28341;-95
2023/08/28 15:47:05;;;;;;;;;2.00;2.00;;;;;;;;4772052;29;28650;-95
2023/08/28 15:49:30;;;;;;;;;3.00;3.00;;;;;;;;4772231;29;28524;-95
2023/08/28 15:51:55;;;;;;;;;1.67;1.67;;;;;;;;4769835;29;28650;-95
2023/08/28 15:54:20;;;;;;;;;2.67;2.67;;;;;;;;4772045;29;28411;-95
2023/08/28 15:56:46;;;;;;;;;2.00;2.00;;;;;;;;4771323;29;28493;-95
2023/08/28 15:59:11;;;;;;;;;3.67;3.67;;;;;;;;4771207;29;28497;-96
2023/08/28 16:01:37;;;;;;;;;4.33;4.33;;;;;;;;4768349;29;28507;-95
2023/08/28 16:04:02;;;;;;;;;3.00;3.00;;;;;;;;4752104;29;28436;-95
2023/08/28 16:06:27;;;;;;;;;4.00;4.00;;;;;;;;4756627;29;29605;-95
2023/08/28 16:08:53;;;;;;;;;1.33;1.33;;;;;;;;4770622;29;28407;-94
2023/08/28 16:11:18;;;;;;;;;3.33;3.33;;;;;;;;4772411;29;28329;-95
2023/08/28 16:13:43;;;;;;;;;3.00;3.00;;;;;;;;4772573;29;28504;-95
2023/08/28 16:16:08;;;;;;;;;4.00;4.00;;;;;;;;4768443;29;28436;-95
2023/08/28 16:18:33;;;;;;;;;5.00;5.00;;;;;;;;4772734;29;28323;-95
2023/08/28 16:20:59;;;;;;;;;2.67;2.67;;;;;;;;4772642;29;28338;-95
2023/08/28 16:23:25;;;;;;;;;3.33;3.33;;;;;;;;4773140;29;28332;-95
2023/08/28 16:25:51;;;;;;;;;3.00;3.00;;;;;;;;4772590;29;28420;-95
2023/08/28 16:28:19;;;;;;;;;3.67;3.67;;;;;;;;4756491;29;28278;-95
2023/08/28 16:30:46;;;;;;;;;4.33;4.33;;;;;;;;4755821;29;28503;-95
2023/08/28 16:33:11;;;;;;;;;4.00;4.00;;;;;;;;4772952;29;28572;-95
2023/08/28 16:35:37;;;;;;;;;3.33;3.33;;;;;;;;4743410;29;708062;-95
2023/08/28 16:38:02;;;;;;;;;3.00;3.00;;;;;;;;4722114;29;1549781;-95
2023/08/28 16:40:28;;;;;;;;;2.00;2.00;;;;;;;;4769988;29;28626;-95
2023/08/28 16:42:54;;;;;;;;;3.00;3.00;;;;;;;;4771851;29;28326;-95
2023/08/28 16:45:22;;;;;;;;;3.00;3.00;;;;;;;;4768878;29;28520;-95
2023/08/28 16:47:47;;;;;;;;;4.00;4.00;;;;;;;;4771399;29;28330;-94
2023/08/28 16:50:13;;;;;;;;;4.00;4.00;;;;;;;;4754475;29;28464;-94
2023/08/28 16:52:39;;;;;;;;;3.67;3.67;;;;;;;;4755380;29;28354;-95
2023/08/28 16:55:05;;;;;;;;;4.00;4.00;;;;;;;;4754743;29;29669;-95
2023/08/28 16:57:30;;;;;;;;;3.00;3.00;;;;;;;;4770197;29;28573;-95
2023/08/28 16:59:55;;;;;;;;;3.67;3.67;;;;;;;;4767439;29;28538;-95
2023/08/28 17:02:20;;;;;;;;;6.00;5.00;;;;;;;;4762658;29;28500;-94
2023/08/28 17:04:46;;;;;;;;;4.33;4.33;;;;;;;;4753889;29;28632;-94
2023/08/28 17:07:11;;;;;;;;;4.00;4.00;;;;;;;;4769099;29;28415;-95
2023/08/28 17:09:36;;;;;;;;;5.00;5.00;;;;;;;;4737192;29;498164;-96
2023/08/28 17:12:03;;;;;;;;;3.33;3.33;;;;;;;;4768094;29;28457;-93
2023/08/28 17:14:28;;;;;;;;;5.00;5.00;;;;;;;;4763096;29;29599;-95
2023/08/28 18:01:07;;;;;;;;;;;;;;;;;;;;;
2023/08/28 20:34:34;;;;;;;;;2.67;2.67;;;;;;;;4720410;30;28524;-94
2023/08/28 20:37:35;;;;;;;;;;;;;;;;;;;;;
2023/08/28 20:40:33;;;;;;;;;;;;;;;;;;;;;
2023/08/28 21:07:47;;;;;;;;;;;;;;;;;;;;;
2023/08/28 21:10:20;;;;;;;;;;;;;;;;;;;;;
2023/08/28 21:16:34;;;;;;;;;;;;;;;;;;;;;
2023/08/28 21:21:57;;;;;;;;;4.00;4.00;;;;;;;;4764730;29;29063;-94
2023/08/28 21:31:31;;;;;;;;;;;;;;;;;;;;;
2023/08/28 21:34:25;;;;;;;;;2.00;2.00;;;;;;;;4729428;29;67760;-94
2023/08/28 21:37:19;;;;;;;;;;;;;;;;;;;;;
2023/08/28 21:40:04;;;;;;;;;;;;;;;;;;;;;
2023/08/28 21:45:25;;;;;;;;;5.00;5.00;;;;;;;;4734664;29;28445;-94
2023/08/28 21:48:01;;;;;;;;;;;;;;;;;;;;;
2023/08/28 21:50:46;;;;;;;;;;;;;;;;;;;;;
2023/08/28 21:56:56;;;;;;;;;3.00;3.00;;;;;;;;4771150;29;45358;-94
2023/08/28 21:59:40;;;;;;;;;4.67;4.67;;;;;;;;4768078;29;44683;-94
2023/08/28 22:02:33;;;;;;;;;3.00;3.00;;;;;;;;4741373;29;45335;-94
2023/08/28 22:05:28;;;;;;;;;3.33;3.33;;;;;;;;4770732;29;28765;-95
2023/08/28 22:11:31;;;;;;;;;;;;;;;;;;;;;
2023/08/28 22:14:12;;;;;;;;;4.67;4.67;;;;;;;;4772035;29;73104;-93
2023/08/28 22:16:55;;;;;;;;;;;;;;;;;;;;;
2023/08/28 22:22:26;;;;;;;;;;;;;;;;;;;;;
2023/08/28 22:25:04;;;;;;;;;;;;;;;;;;;;;
2023/08/28 22:27:55;;;;;;;;;6.33;6.33;;;;;;;;4768400;29;67757;-94
2023/08/28 22:33:47;;;;;;;;;5.67;5.67;;;;;;;;4770237;29;46497;-94
2023/08/28 22:37:00;;;;;;;;;;;;;;;;;;;;;
2023/08/28 22:39:25;;;;;;;;;7.00;7.00;;;;;;;;4773830;29;28238;-95
2023/08/28 22:45:04;;;;;;;;;;;;;;;;;;;;;
2023/08/28 22:47:38;;;;;;;;;3.00;3.00;;;;;;;;4789165;29;55738;-94
2023/08/28 22:55:57;;;;;;;;;;;;;;;;;;;;;
2023/08/28 22:58:33;;;;;;;;;4.00;4.00;;;;;;;;4783162;29;54495;-94
2023/08/28 23:01:02;;;;;;;;;6.33;6.33;;;;;;;;4769628;29;28610;-94
2023/08/28 23:06:46;;;;;;;;;;;;;;;;;;;;;
2023/08/28 23:09:12;;;;;;;;;3.00;3.00;;;;;;;;4786554;29;55990;-94
2023/08/28 23:11:40;;;;;;;;;7.00;7.00;;;;;;;;4769581;29;28743;-94
2023/08/28 23:14:13;;;;;;;;;8.00;8.00;;;;;;;;4760665;29;28560;-94
2023/08/28 23:16:59;;;;;;;;;5.67;5.67;;;;;;;;4759614;29;28577;-94
2023/08/28 23:19:39;;;;;;;;;5.33;5.33;;;;;;;;4767787;29;44676;-94
2023/08/28 23:22:05;;;;;;;;;3.67;3.67;;;;;;;;4760094;29;28333;-94
2023/08/28 23:24:39;;;;;;;;;5.00;5.00;;;;;;;;4780990;29;45308;-94
2023/08/28 23:27:04;;;;;;;;;5.33;5.33;;;;;;;;4746728;29;45249;-94
2023/08/28 23:29:52;;;;;;;;;5.00;5.00;;;;;;;;4749495;29;45518;-94
2023/08/28 23:32:47;;;;;;;;;7.33;7.33;;;;;;;;4763917;29;45439;-94
2023/08/28 23:35:31;;;;;;;;;;;;;;;;;;;;;
2023/08/28 23:37:59;;;;;;;;;7.67;7.67;;;;;;;;4780837;29;75676;-94
2023/08/28 23:40:42;;;;;;;;;10.00;10.00;;;;;;;;4774027;29;28883;-94
2023/08/28 23:43:13;;;;;;;;;7.00;7.00;;;;;;;;4791670;29;28400;-94
2023/08/28 23:45:45;;;;;;;;;6.67;6.67;;;;;;;;4773022;29;28255;-94
2023/08/28 23:48:18;;;;;;;;;8.67;7.33;;;;;;;;4772700;29;28545;-94
2023/08/28 23:50:44;;;;;;;;;8.00;8.00;;;;;;;;4773148;29;28426;-94
2023/08/28 23:53:22;;;;;;;;;;;;;;;;;;;;;
2023/08/28 23:58:45;;;;;;;;;5.33;5.33;;;;;;;;4762995;29;28648;-94
